Time;durP1;ratioP1;P1;durP2;ratioP2;P2;SDS_P1;SDS_P2;PMS_P1;PMS_P2;Temp;Humidity;BMP_temperature;BMP_pressure;BME280_temperature;BME280_humidity;BME280_pressure;Samples;Min_cycle;Max_cycle;Signal;HPM_P1;HPM_P2
2021/03/25 00:02:03;;;;;;;18.55;8.68;;;;;;;;;;4917575;29;20052;-65
2021/03/25 00:04:29;;;;;;;16.85;8.57;;;;;;;;;;4917687;29;20372;-64
2021/03/25 00:06:57;;;;;;;16.48;8.25;;;;;;;;;;4917436;29;20036;-62
2021/03/25 00:09:25;;;;;;;15.85;8.00;;;;;;;;;;4916876;29;20506;-64
2021/03/25 00:11:51;;;;;;;16.30;8.25;;;;;;;;;;4900700;29;20055;-63
2021/03/25 00:14:18;;;;;;;19.60;8.73;;;;;;;;;;4917081;29;20028;-65
2021/03/25 00:16:44;;;;;;;17.42;8.65;;;;;;;;;;4916737;29;20032;-65
2021/03/25 00:19:11;;;;;;;18.80;9.00;;;;;;;;;;4917664;29;20064;-63
2021/03/25 00:21:37;;;;;;;18.75;9.52;;;;;;;;;;4917030;29;20071;-64
2021/03/25 00:24:04;;;;;;;18.65;8.75;;;;;;;;;;4917172;29;20099;-62
2021/03/25 00:26:31;;;;;;;15.98;8.43;;;;;;;;;;4917256;29;20032;-64
2021/03/25 00:28:57;;;;;;;18.80;9.13;;;;;;;;;;4917555;29;20028;-64
2021/03/25 00:31:23;;;;;;;19.75;9.25;;;;;;;;;;4916683;29;20104;-63
2021/03/25 00:33:49;;;;;;;19.80;9.35;;;;;;;;;;4917218;29;20029;-62
2021/03/25 00:36:16;;;;;;;15.18;8.38;;;;;;;;;;4918345;29;20036;-63
2021/03/25 00:38:42;;;;;;;18.85;9.80;;;;;;;;;;4920682;29;20468;-63
2021/03/25 00:41:08;;;;;;;22.70;9.38;;;;;;;;;;4920977;29;20069;-62
2021/03/25 00:43:34;;;;;;;17.73;8.50;;;;;;;;;;4920272;29;20429;-61
2021/03/25 00:46:00;;;;;;;22.02;8.77;;;;;;;;;;4920872;29;20087;-64
2021/03/25 00:48:26;;;;;;;17.27;8.77;;;;;;;;;;4920836;29;20020;-63
2021/03/25 00:50:57;;;;;;;19.95;9.35;;;;;;;;;;4920233;29;20027;-64
2021/03/25 00:53:25;;;;;;;16.45;8.85;;;;;;;;;;4920680;29;20106;-64
2021/03/25 00:55:52;;;;;;;20.35;9.05;;;;;;;;;;4920397;29;20028;-64
2021/03/25 00:58:18;;;;;;;17.05;8.70;;;;;;;;;;4919849;29;20020;-64
2021/03/25 01:00:47;;;;;;;17.70;9.15;;;;;;;;;;4903175;29;20563;-63
2021/03/25 01:03:13;;;;;;;20.50;9.20;;;;;;;;;;4920087;29;20024;-64
2021/03/25 01:05:40;;;;;;;17.58;8.90;;;;;;;;;;4919707;29;20031;-64
2021/03/25 01:08:07;;;;;;;18.80;9.23;;;;;;;;;;4920280;29;20024;-64
2021/03/25 01:10:36;;;;;;;18.20;9.27;;;;;;;;;;4919921;29;20032;-63
2021/03/25 01:13:05;;;;;;;19.15;9.15;;;;;;;;;;4903057;29;20024;-65
2021/03/25 01:15:32;;;;;;;18.15;9.30;;;;;;;;;;4920105;29;20024;-63
2021/03/25 01:17:59;;;;;;;17.70;8.50;;;;;;;;;;4920008;29;20040;-62
2021/03/25 01:20:27;;;;;;;16.27;8.85;;;;;;;;;;4919660;29;20096;-65
2021/03/25 01:22:53;;;;;;;18.25;9.77;;;;;;;;;;4920274;29;20028;-63
2021/03/25 01:25:21;;;;;;;17.25;9.57;;;;;;;;;;4919692;29;20100;-64
2021/03/25 01:27:47;;;;;;;19.08;8.85;;;;;;;;;;4920153;29;20571;-63
2021/03/25 01:30:14;;;;;;;17.15;8.82;;;;;;;;;;4919865;29;20076;-65
2021/03/25 01:32:40;;;;;;;18.85;9.73;;;;;;;;;;4919736;29;20039;-64
2021/03/25 01:35:08;;;;;;;20.75;10.07;;;;;;;;;;4919533;29;20062;-64
2021/03/25 01:37:34;;;;;;;25.02;11.43;;;;;;;;;;4919382;29;20432;-63
2021/03/25 01:40:00;;;;;;;24.10;10.57;;;;;;;;;;4919201;29;20028;-62
2021/03/25 01:42:27;;;;;;;19.65;10.93;;;;;;;;;;4919923;29;20112;-63
2021/03/25 01:44:54;;;;;;;20.55;10.48;;;;;;;;;;4919909;29;20028;-63
2021/03/25 01:47:20;;;;;;;22.77;10.80;;;;;;;;;;4918880;29;20087;-63
2021/03/25 01:49:46;;;;;;;22.52;10.55;;;;;;;;;;4919534;29;20055;-64
2021/03/25 01:52:21;;;;;;;24.52;10.70;;;;;;;;;;4919743;29;20103;-62
2021/03/25 01:54:47;;;;;;;20.15;10.18;;;;;;;;;;4918844;29;20119;-63
2021/03/25 01:57:32;;;;;;;22.65;10.60;;;;;;;;;;4919849;29;20032;-63
2021/03/25 02:00:07;;;;;;;21.25;10.13;;;;;;;;;;4919190;29;20440;-63
2021/03/25 02:02:33;;;;;;;22.60;10.82;;;;;;;;;;4919556;29;20129;-63
2021/03/25 02:05:18;;;;;;;20.25;10.35;;;;;;;;;;4918998;29;20373;-63
2021/03/25 02:08:02;;;;;;;20.08;10.75;;;;;;;;;;4918833;29;20039;-62
2021/03/25 02:10:47;;;;;;;25.95;13.18;;;;;;;;;;4919416;29;20028;-64
2021/03/25 02:13:31;;;;;;;30.95;12.63;;;;;;;;;;4919074;29;20020;-63
2021/03/25 02:16:00;;;;;;;21.60;11.98;;;;;;;;;;4918730;29;20526;-61
2021/03/25 02:18:26;;;;;;;27.13;11.68;;;;;;;;;;4919004;29;20024;-63
2021/03/25 02:21:08;;;;;;;19.90;10.65;;;;;;;;;;4919478;29;20028;-64
2021/03/25 02:23:37;;;;;;;21.95;10.27;;;;;;;;;;4919157;29;20036;-62
2021/03/25 02:26:23;;;;;;;23.25;10.48;;;;;;;;;;4919097;29;20028;-63
2021/03/25 02:29:01;;;;;;;23.98;10.43;;;;;;;;;;4918312;29;20028;-64
2021/03/25 02:31:36;;;;;;;20.35;10.95;;;;;;;;;;4919036;29;20032;-66
2021/03/25 02:34:12;;;;;;;19.35;10.73;;;;;;;;;;4918665;29;20080;-64
2021/03/25 02:36:41;;;;;;;22.20;11.38;;;;;;;;;;4918303;29;20047;-63
2021/03/25 02:39:09;;;;;;;27.63;11.98;;;;;;;;;;4918316;29;20028;-63
2021/03/25 02:41:41;;;;;;;23.02;12.23;;;;;;;;;;4918832;29;20032;-64
2021/03/25 02:44:09;;;;;;;;;;;;;;;;;;4918361;29;20040;-63
2021/03/25 02:46:38;;;;;;;25.45;12.55;;;;;;;;;;4918456;29;19907;-62
2021/03/25 02:49:06;;;;;;;26.42;12.70;;;;;;;;;;4918731;29;20028;-63
2021/03/25 02:51:41;;;;;;;27.48;12.63;;;;;;;;;;4917886;29;20028;-62
2021/03/25 02:54:07;;;;;;;26.48;13.10;;;;;;;;;;4918063;29;20160;-63
2021/03/25 02:56:37;;;;;;;23.85;12.70;;;;;;;;;;4917943;29;20037;-62
2021/03/25 02:59:12;;;;;;;31.25;12.38;;;;;;;;;;4917792;29;20074;-62
2021/03/25 03:01:42;;;;;;;23.42;11.85;;;;;;;;;;4917934;29;20081;-63
2021/03/25 03:04:16;;;;;;;27.38;13.32;;;;;;;;;;4918176;29;20464;-64
2021/03/25 03:06:48;;;;;;;30.55;12.93;;;;;;;;;;4918192;29;20039;-64
2021/03/25 03:09:18;;;;;;;18.45;9.05;;;;;;;;;;4918728;29;20032;-63
2021/03/25 03:11:46;;;;;;;25.77;12.52;;;;;;;;;;4917796;29;20036;-65
2021/03/25 03:14:15;;;;;;;26.70;12.95;;;;;;;;;;4917805;29;20395;-63
2021/03/25 03:16:44;;;;;;;27.85;13.93;;;;;;;;;;4917915;29;20036;-62
2021/03/25 03:19:14;;;;;;;29.88;14.02;;;;;;;;;;4917635;29;20024;-63
2021/03/25 03:21:46;;;;;;;35.00;14.13;;;;;;;;;;4918206;29;20074;-63
2021/03/25 03:24:12;;;;;;;28.63;13.90;;;;;;;;;;4918116;29;20027;-64
2021/03/25 03:26:44;;;;;;;31.27;14.65;;;;;;;;;;4917902;29;20036;-63
2021/03/25 03:29:10;;;;;;;28.70;14.82;;;;;;;;;;4917777;29;20099;-62
2021/03/25 03:31:40;;;;;;;30.15;14.63;;;;;;;;;;4917548;29;20594;-64
2021/03/25 03:34:09;;;;;;;33.15;14.60;;;;;;;;;;4917792;29;20024;-63
2021/03/25 03:36:35;;;;;;;30.73;14.40;;;;;;;;;;4917432;29;20538;-63
2021/03/25 03:39:05;;;;;;;29.85;14.13;;;;;;;;;;4917171;29;20032;-64
2021/03/25 03:41:36;;;;;;;33.55;14.95;;;;;;;;;;4917924;29;20110;-64
2021/03/25 03:44:07;;;;;;;34.03;15.40;;;;;;;;;;4917660;29;20035;-63
2021/03/25 03:46:34;;;;;;;33.15;15.90;;;;;;;;;;4917575;29;20107;-63
2021/03/25 03:49:09;;;;;;;34.47;15.50;;;;;;;;;;4917864;29;20029;-64
2021/03/25 03:51:41;;;;;;;29.65;15.40;;;;;;;;;;4917615;29;20028;-63
2021/03/25 03:54:07;;;;;;;35.17;17.25;;;;;;;;;;4917011;29;20099;-62
2021/03/25 03:56:37;;;;;;;35.05;15.75;;;;;;;;;;4917748;29;20036;-64
2021/03/25 03:59:08;;;;;;;33.22;16.33;;;;;;;;;;4917240;29;20152;-64
2021/03/25 04:01:34;;;;;;;37.15;15.70;;;;;;;;;;4917167;29;20099;-63
2021/03/25 04:04:02;;;;;;;35.42;16.50;;;;;;;;;;4917180;29;20035;-63
2021/03/25 04:06:34;;;;;;;34.70;16.55;;;;;;;;;;4917149;29;20107;-64
2021/03/25 04:09:03;;;;;;;41.85;18.17;;;;;;;;;;4917249;29;20028;-63
2021/03/25 04:11:32;;;;;;;47.15;20.77;;;;;;;;;;4919378;29;20532;-63
2021/03/25 04:14:07;;;;;;;47.05;19.63;;;;;;;;;;4920897;29;20461;-63
2021/03/25 04:16:35;;;;;;;35.90;17.40;;;;;;;;;;4921395;29;20407;-63
2021/03/25 04:19:07;;;;;;;30.88;15.13;;;;;;;;;;4920859;29;20024;-64
2021/03/25 04:21:35;;;;;;;32.50;16.75;;;;;;;;;;4921018;29;20028;-64
2021/03/25 04:24:05;;;;;;;33.17;16.42;;;;;;;;;;4920968;29;20080;-64
2021/03/25 04:26:46;;;;;;;35.30;16.63;;;;;;;;;;4921261;29;20028;-64
2021/03/25 04:29:16;;;;;;;44.08;18.10;;;;;;;;;;4920620;29;20059;-64
2021/03/25 04:31:42;;;;;;;34.50;17.05;;;;;;;;;;4920787;29;20468;-63
2021/03/25 04:34:08;;;;;;;36.63;16.83;;;;;;;;;;4920572;29;20028;-64
2021/03/25 04:36:37;;;;;;;36.70;17.90;;;;;;;;;;4920804;29;20405;-64
2021/03/25 04:39:05;;;;;;;38.08;18.13;;;;;;;;;;4920502;29;20472;-63
2021/03/25 04:41:32;;;;;;;41.63;18.88;;;;;;;;;;4920167;29;20467;-62
2021/03/25 04:43:59;;;;;;;40.03;19.27;;;;;;;;;;4903735;29;20039;-64
2021/03/25 04:46:31;;;;;;;39.30;18.42;;;;;;;;;;4920868;29;20353;-64
2021/03/25 04:48:58;;;;;;;36.90;18.63;;;;;;;;;;4920310;29;20535;-62
2021/03/25 04:51:25;;;;;;;40.85;18.60;;;;;;;;;;4920390;29;20156;-64
2021/03/25 04:53:52;;;;;;;47.30;21.50;;;;;;;;;;4921041;29;20020;-64
2021/03/25 04:56:23;;;;;;;48.55;21.15;;;;;;;;;;4920067;29;20043;-62
2021/03/25 04:58:52;;;;;;;42.70;19.83;;;;;;;;;;4920511;29;20032;-63
2021/03/25 05:01:19;;;;;;;51.03;21.05;;;;;;;;;;4920461;29;20059;-63
2021/03/25 05:03:47;;;;;;;48.58;24.75;;;;;;;;;;4920162;29;20050;-63
2021/03/25 05:06:20;;;;;;;40.13;21.35;;;;;;;;;;4920608;29;20038;-64
2021/03/25 05:08:48;;;;;;;62.83;32.75;;;;;;;;;;4920306;29;20028;-63
2021/03/25 05:11:16;;;;;;;45.95;24.55;;;;;;;;;;4919688;29;20547;-66
2021/03/25 05:13:44;;;;;;;50.97;24.70;;;;;;;;;;4920203;29;20056;-63
2021/03/25 05:16:22;;;;;;;49.17;24.27;;;;;;;;;;4919799;29;20458;-63
2021/03/25 05:19:09;;;;;;;53.40;25.23;;;;;;;;;;4919824;29;20028;-63
2021/03/25 05:21:57;;;;;;;58.03;27.20;;;;;;;;;;4892621;29;20068;-64
2021/03/25 05:24:27;;;;;;;60.30;27.63;;;;;;;;;;4919729;29;20035;-62
2021/03/25 05:27:00;;;;;;;52.08;25.92;;;;;;;;;;4919986;29;20065;-63
2021/03/25 05:29:27;;;;;;;66.50;30.20;;;;;;;;;;4920125;29;20028;-64
2021/03/25 05:31:54;;;;;;;65.93;29.88;;;;;;;;;;4919297;29;20028;-63
2021/03/25 05:34:21;;;;;;;91.45;35.90;;;;;;;;;;4919623;29;20032;-63
2021/03/25 05:36:48;;;;;;;91.95;34.60;;;;;;;;;;4902882;29;20072;-63
2021/03/25 05:39:14;;;;;;;70.88;32.08;;;;;;;;;;4919142;29;20032;-65
2021/03/25 05:41:45;;;;;;;62.53;32.40;;;;;;;;;;4919389;29;20082;-64
2021/03/25 05:44:26;;;;;;;68.80;31.00;;;;;;;;;;4919227;29;20493;-64
2021/03/25 05:47:04;;;;;;;91.50;36.67;;;;;;;;;;4919467;29;20112;-65
2021/03/25 05:49:37;;;;;;;100.70;41.53;;;;;;;;;;4919566;29;20038;-65
2021/03/25 05:52:41;;;;;;;68.93;32.10;;;;;;;;;;4919290;29;20103;-65
2021/03/25 05:55:23;;;;;;;62.25;29.85;;;;;;;;;;4861009;29;20068;-64
2021/03/25 05:58:11;;;;;;;61.28;29.67;;;;;;;;;;4860474;29;20047;-63
2021/03/25 06:00:40;;;;;;;65.72;32.08;;;;;;;;;;4857821;29;20160;-64
2021/03/25 06:03:10;;;;;;;68.38;33.53;;;;;;;;;;4860463;29;20506;-63
2021/03/25 06:05:36;;;;;;;66.47;31.23;;;;;;;;;;4860010;29;20040;-63
2021/03/25 06:08:08;;;;;;;66.93;32.22;;;;;;;;;;4860328;29;20033;-63
2021/03/25 06:10:35;;;;;;;;;;;;;;;;;;4860701;29;20053;-65
2021/03/25 06:13:19;;;;;;;62.58;31.85;;;;;;;;;;4859862;29;19956;-63
2021/03/25 06:15:45;;;;;;;60.92;31.20;;;;;;;;;;4860259;29;20041;-65
2021/03/25 06:18:14;;;;;;;48.92;26.77;;;;;;;;;;4860047;29;20398;-63
2021/03/25 06:20:59;;;;;;;52.80;28.75;;;;;;;;;;4859804;29;20037;-64
2021/03/25 06:23:43;;;;;;;85.97;40.28;;;;;;;;;;4858390;29;20466;-62
2021/03/25 06:26:28;;;;;;;67.95;32.92;;;;;;;;;;4895953;29;20043;-64
2021/03/25 06:29:03;;;;;;;47.78;24.63;;;;;;;;;;4918790;29;20527;-64
2021/03/25 06:31:29;;;;;;;44.55;23.98;;;;;;;;;;4918419;29;20071;-64
2021/03/25 06:34:22;;;;;;;41.63;23.77;;;;;;;;;;4917557;29;20032;-63
2021/03/25 06:36:54;;;;;;;43.83;23.02;;;;;;;;;;4915667;29;20043;-63
2021/03/25 06:39:39;;;;;;;46.67;24.17;;;;;;;;;;4918616;29;20032;-64
2021/03/25 06:42:05;;;;;;;43.05;23.50;;;;;;;;;;4918058;29;20495;-64
2021/03/25 06:44:37;;;;;;;40.13;23.17;;;;;;;;;;4917593;29;20036;-63
2021/03/25 06:47:11;;;;;;;33.72;18.48;;;;;;;;;;4917907;29;20028;-64
2021/03/25 06:49:43;;;;;;;41.45;23.25;;;;;;;;;;4917531;29;20051;-62
2021/03/25 06:52:15;;;;;;;41.38;22.05;;;;;;;;;;4918977;29;20051;-63
2021/03/25 06:54:41;;;;;;;48.17;25.23;;;;;;;;;;4917042;29;20035;-65
2021/03/25 06:57:13;;;;;;;47.92;23.65;;;;;;;;;;4918060;29;20043;-64
2021/03/25 06:59:40;;;;;;;32.45;17.55;;;;;;;;;;4913530;29;20487;-64
2021/03/25 07:02:09;;;;;;;45.35;25.77;;;;;;;;;;4917758;29;20076;-65
2021/03/25 07:04:42;;;;;;;42.83;24.17;;;;;;;;;;4917344;29;20028;-64
2021/03/25 07:07:11;;;;;;;47.95;24.80;;;;;;;;;;4917540;29;20034;-65
2021/03/25 07:09:39;;;;;;;44.38;23.17;;;;;;;;;;4917832;29;20028;-64
2021/03/25 07:12:07;;;;;;;36.55;21.17;;;;;;;;;;4917205;29;20032;-69
2021/03/25 07:14:43;;;;;;;41.25;22.17;;;;;;;;;;4901170;29;20387;-68
2021/03/25 07:17:17;;;;;;;39.95;20.85;;;;;;;;;;4916087;29;20070;-71
2021/03/25 07:19:45;;;;;;;38.53;21.10;;;;;;;;;;4900125;29;20032;-72
2021/03/25 07:22:19;;;;;;;40.28;21.83;;;;;;;;;;4917663;29;20080;-69
2021/03/25 07:24:46;;;;;;;41.53;21.95;;;;;;;;;;4917041;29;20020;-67
2021/03/25 07:27:17;;;;;;;34.53;19.65;;;;;;;;;;4888197;29;20068;-68
2021/03/25 07:29:45;;;;;;;38.97;20.98;;;;;;;;;;4910438;29;20087;-70
2021/03/25 07:32:11;;;;;;;38.08;21.92;;;;;;;;;;4893775;29;20036;-69
2021/03/25 07:34:39;;;;;;;35.65;20.55;;;;;;;;;;4906095;29;20357;-71
2021/03/25 07:37:07;;;;;;;35.05;19.52;;;;;;;;;;4893129;29;20056;-71
2021/03/25 07:39:36;;;;;;;35.55;19.50;;;;;;;;;;4905518;29;20047;-68
2021/03/25 07:42:03;;;;;;;35.22;18.88;;;;;;;;;;4909075;29;20476;-70
2021/03/25 07:44:37;;;;;;;33.65;18.65;;;;;;;;;;4907178;29;20024;-68
2021/03/25 07:47:24;;;;;;;35.72;19.73;;;;;;;;;;4889079;29;20384;-67
2021/03/25 07:49:51;;;;;;;37.92;20.27;;;;;;;;;;4904874;29;20127;-68
2021/03/25 07:52:31;;;;;;;41.05;22.67;;;;;;;;;;4885464;29;20386;-67
2021/03/25 07:55:21;;;;;;;39.25;21.42;;;;;;;;;;4905511;29;20032;-69
2021/03/25 07:57:51;;;;;;;34.10;19.77;;;;;;;;;;4904037;29;20095;-67
2021/03/25 08:00:49;;;;;;;35.03;19.13;;;;;;;;;;4906889;29;20020;-69
2021/03/25 08:03:22;;;;;;;39.35;20.10;;;;;;;;;;4858004;29;20043;-70
2021/03/25 08:05:52;;;;;;;35.45;20.40;;;;;;;;;;4858602;29;20354;-68
2021/03/25 08:08:33;;;;;;;34.55;19.98;;;;;;;;;;4874029;29;20056;-69
2021/03/25 08:11:11;;;;;;;39.92;22.20;;;;;;;;;;4874744;29;20116;-67
2021/03/25 08:13:45;;;;;;;31.42;19.15;;;;;;;;;;4857333;29;20037;-68
2021/03/25 08:16:12;;;;;;;35.88;21.33;;;;;;;;;;4872805;29;20044;-68
2021/03/25 08:18:48;;;;;;;43.45;23.02;;;;;;;;;;4874650;29;20062;-68
2021/03/25 08:21:23;;;;;;;42.10;23.63;;;;;;;;;;4873970;29;20033;-68
2021/03/25 08:24:16;;;;;;;42.88;26.08;;;;;;;;;;4858507;29;20072;-69
2021/03/25 08:27:01;;;;;;;48.60;27.25;;;;;;;;;;4791874;29;20047;-69
2021/03/25 08:29:45;;;;;;;35.33;20.13;;;;;;;;;;4801031;29;20077;-67
2021/03/25 08:32:24;;;;;;;32.00;18.60;;;;;;;;;;4791737;29;20065;-67
2021/03/25 08:34:50;;;;;;;40.25;21.02;;;;;;;;;;4798485;29;20033;-68
2021/03/25 08:37:25;;;;;;;35.05;19.73;;;;;;;;;;4802224;29;20059;-69
2021/03/25 08:39:51;;;;;;;30.83;18.30;;;;;;;;;;4836544;29;20048;-69
2021/03/25 08:42:26;;;;;;;31.00;16.17;;;;;;;;;;4834158;29;20490;-67
2021/03/25 08:45:10;;;;;;;29.25;16.60;;;;;;;;;;4828888;29;20086;-66
2021/03/25 08:47:41;;;;;;;29.63;14.88;;;;;;;;;;4838605;29;20616;-69
2021/03/25 08:50:25;;;;;;;31.65;14.68;;;;;;;;;;4839559;29;20154;-65
2021/03/25 08:52:52;;;;;;;25.60;13.25;;;;;;;;;;4838852;29;20038;-68
2021/03/25 08:55:24;;;;;;;24.27;14.95;;;;;;;;;;4838994;29;20085;-66
2021/03/25 08:57:52;;;;;;;28.13;14.02;;;;;;;;;;4841843;29;20050;-65
2021/03/25 09:00:24;;;;;;;21.83;12.38;;;;;;;;;;4842190;29;20062;-66
2021/03/25 09:02:53;;;;;;;24.50;12.02;;;;;;;;;;4859180;29;20119;-68
2021/03/25 09:05:31;;;;;;;28.52;13.55;;;;;;;;;;4896806;29;20416;-67
2021/03/25 09:07:59;;;;;;;26.02;13.65;;;;;;;;;;4909383;29;20029;-66
2021/03/25 09:10:33;;;;;;;24.23;13.15;;;;;;;;;;4906682;29;20364;-69
2021/03/25 09:12:59;;;;;;;24.17;12.40;;;;;;;;;;4908291;29;20025;-67
2021/03/25 09:15:26;;;;;;;28.20;14.63;;;;;;;;;;4908241;29;20055;-70
2021/03/25 09:17:55;;;;;;;27.23;15.02;;;;;;;;;;4904605;29;20111;-66
2021/03/25 09:20:33;;;;;;;28.50;15.48;;;;;;;;;;4901326;29;20025;-68
2021/03/25 09:23:01;;;;;;;25.33;14.55;;;;;;;;;;4910542;29;20021;-66
2021/03/25 09:25:27;;;;;;;38.28;20.95;;;;;;;;;;4908866;29;20032;-66
2021/03/25 09:27:53;;;;;;;29.77;16.27;;;;;;;;;;4909421;29;20096;-67
2021/03/25 09:30:22;;;;;;;33.20;18.55;;;;;;;;;;4907701;29;20037;-67
2021/03/25 09:32:48;;;;;;;29.20;16.63;;;;;;;;;;4907082;29;20032;-68
2021/03/25 09:35:44;;;;;;;27.15;13.93;;;;;;;;;;4909411;29;20036;-68
2021/03/25 09:38:11;;;;;;;22.58;12.60;;;;;;;;;;4900685;29;20048;-67
2021/03/25 09:40:51;;;;;;;26.88;13.40;;;;;;;;;;4906096;29;20067;-67
2021/03/25 09:43:44;;;;;;;25.92;13.98;;;;;;;;;;4907741;29;20044;-68
2021/03/25 09:46:23;;;;;;;26.20;14.23;;;;;;;;;;4905222;29;20043;-65
2021/03/25 09:48:50;;;;;;;22.55;13.20;;;;;;;;;;4908778;29;20056;-67
2021/03/25 09:51:16;;;;;;;26.42;13.75;;;;;;;;;;4911373;29;20417;-67
2021/03/25 09:53:53;;;;;;;24.60;13.70;;;;;;;;;;4909446;29;20033;-67
2021/03/25 09:56:30;;;;;;;23.73;13.25;;;;;;;;;;4911924;29;20020;-68
2021/03/25 09:58:57;;;;;;;24.77;13.20;;;;;;;;;;4893827;29;20028;-68
2021/03/25 10:01:41;;;;;;;24.00;12.88;;;;;;;;;;4905622;29;20056;-67
2021/03/25 10:04:34;;;;;;;21.13;12.20;;;;;;;;;;4905086;29;20032;-68
2021/03/25 10:07:03;;;;;;;23.70;12.68;;;;;;;;;;4905222;29;20160;-66
2021/03/25 10:09:48;;;;;;;24.08;14.02;;;;;;;;;;4907821;29;20043;-66
2021/03/25 10:12:14;;;;;;;23.60;13.10;;;;;;;;;;4911873;29;20032;-67
2021/03/25 10:14:48;;;;;;;19.15;11.77;;;;;;;;;;4908217;29;20067;-66
2021/03/25 10:17:33;;;;;;;24.17;12.30;;;;;;;;;;4907275;29;20056;-66
2021/03/25 10:19:59;;;;;;;21.45;11.63;;;;;;;;;;4907417;29;20481;-66
2021/03/25 10:22:26;;;;;;;17.10;10.30;;;;;;;;;;4909529;29;20039;-68
2021/03/25 10:24:56;;;;;;;14.05;7.22;;;;;;;;;;4902594;29;20028;-66
2021/03/25 10:27:41;;;;;;;9.68;5.13;;;;;;;;;;4907016;29;20051;-65
2021/03/25 10:30:24;;;;;;;10.93;7.00;;;;;;;;;;4888048;29;20547;-65
2021/03/25 10:32:50;;;;;;;11.52;6.72;;;;;;;;;;4908623;29;20035;-68
2021/03/25 10:35:31;;;;;;;14.32;8.18;;;;;;;;;;4885674;29;20081;-68
2021/03/25 10:38:08;;;;;;;11.98;6.28;;;;;;;;;;4905770;29;20047;-70
2021/03/25 10:40:39;;;;;;;15.80;7.88;;;;;;;;;;4915349;29;20031;-68
2021/03/25 10:43:08;;;;;;;15.02;8.32;;;;;;;;;;4917740;29;20020;-70
2021/03/25 10:45:50;;;;;;;13.23;7.28;;;;;;;;;;4911520;29;20032;-68
2021/03/25 10:48:21;;;;;;;13.57;8.93;;;;;;;;;;4904085;29;20029;-67
2021/03/25 10:51:14;;;;;;;20.63;10.63;;;;;;;;;;4911522;29;20096;-69
2021/03/25 10:53:42;;;;;;;17.42;9.00;;;;;;;;;;4910200;29;20035;-67
2021/03/25 10:56:15;;;;;;;16.35;9.68;;;;;;;;;;4901599;29;20309;-69
2021/03/25 10:58:42;;;;;;;16.30;8.90;;;;;;;;;;4906340;29;20020;-69
2021/03/25 11:01:20;;;;;;;18.38;10.25;;;;;;;;;;4908349;29;20401;-67
2021/03/25 11:03:46;;;;;;;13.68;8.57;;;;;;;;;;4906787;29;20035;-69
2021/03/25 11:06:21;;;;;;;14.50;8.15;;;;;;;;;;4905810;29;20062;-69
2021/03/25 11:08:49;;;;;;;15.63;7.95;;;;;;;;;;4903365;29;20028;-69
2021/03/25 11:11:20;;;;;;;13.27;8.20;;;;;;;;;;4917715;29;20026;-69
2021/03/25 11:14:03;;;;;;;14.15;8.70;;;;;;;;;;4911811;29;20033;-66
2021/03/25 11:16:31;;;;;;;15.82;8.65;;;;;;;;;;4909635;29;20040;-69
2021/03/25 11:18:58;;;;;;;17.45;10.07;;;;;;;;;;4890762;29;20031;-68
2021/03/25 11:21:26;;;;;;;17.90;10.52;;;;;;;;;;4904948;29;20028;-67
2021/03/25 11:24:00;;;;;;;19.23;10.90;;;;;;;;;;4908026;29;20150;-68
2021/03/25 11:26:26;;;;;;;14.13;8.75;;;;;;;;;;4905540;29;20559;-69
2021/03/25 11:28:52;;;;;;;16.60;9.73;;;;;;;;;;4904739;29;20393;-67
2021/03/25 11:31:22;;;;;;;18.58;10.02;;;;;;;;;;4905206;29;20032;-69
2021/03/25 11:33:49;;;;;;;17.00;10.60;;;;;;;;;;4890738;29;20115;-68
2021/03/25 11:36:32;;;;;;;19.55;10.52;;;;;;;;;;4889462;29;20028;-68
2021/03/25 11:39:08;;;;;;;18.77;10.43;;;;;;;;;;4906203;29;20076;-67
2021/03/25 11:41:35;;;;;;;18.05;11.27;;;;;;;;;;4889814;29;20033;-67
2021/03/25 11:44:06;;;;;;;17.92;9.77;;;;;;;;;;4896871;29;20028;-66
2021/03/25 11:46:36;;;;;;;13.50;8.95;;;;;;;;;;4905734;29;20556;-68
2021/03/25 11:49:08;;;;;;;13.38;8.55;;;;;;;;;;4891163;29;20028;-69
2021/03/25 11:51:39;;;;;;;17.15;9.27;;;;;;;;;;4904136;29;20484;-69
2021/03/25 11:54:26;;;;;;;35.38;19.92;;;;;;;;;;4903922;29;20048;-69
2021/03/25 11:56:56;;;;;;;34.05;21.75;;;;;;;;;;4915530;29;20083;-69
2021/03/25 11:59:30;;;;;;;14.63;9.30;;;;;;;;;;4917343;29;20028;-71
2021/03/25 12:02:07;;;;;;;15.27;9.18;;;;;;;;;;4895789;29;20116;-68
2021/03/25 12:04:35;;;;;;;12.77;7.97;;;;;;;;;;4890605;29;20103;-70
2021/03/25 12:07:03;;;;;;;14.82;9.00;;;;;;;;;;4886522;29;20346;-70
2021/03/25 12:09:30;;;;;;;14.02;8.45;;;;;;;;;;4885837;29;20032;-69
2021/03/25 12:11:58;;;;;;;16.83;10.23;;;;;;;;;;4887968;29;20476;-74
2021/03/25 12:14:25;;;;;;;14.27;8.20;;;;;;;;;;4886900;29;20056;-70
2021/03/25 12:17:02;;;;;;;14.00;8.13;;;;;;;;;;4886213;29;20100;-71
2021/03/25 12:19:28;;;;;;;15.00;8.13;;;;;;;;;;4886948;29;20477;-69
2021/03/25 12:21:55;;;;;;;13.27;7.80;;;;;;;;;;4891830;29;20047;-67
2021/03/25 12:24:21;;;;;;;13.75;8.00;;;;;;;;;;4897025;29;20035;-68
2021/03/25 12:26:47;;;;;;;12.98;7.85;;;;;;;;;;4898012;29;20033;-67
2021/03/25 12:29:13;;;;;;;18.65;8.93;;;;;;;;;;4896709;29;20056;-68
2021/03/25 12:31:41;;;;;;;15.82;8.55;;;;;;;;;;4897433;29;20025;-66
2021/03/25 12:34:08;;;;;;;16.25;9.10;;;;;;;;;;4896676;29;20052;-68
2021/03/25 12:36:34;;;;;;;14.93;7.93;;;;;;;;;;4901499;29;20029;-69
2021/03/25 12:39:01;;;;;;;13.25;7.82;;;;;;;;;;4901762;29;20104;-67
2021/03/25 12:41:27;;;;;;;15.73;9.48;;;;;;;;;;4899147;29;20024;-67
2021/03/25 12:43:53;;;;;;;14.02;7.75;;;;;;;;;;4899492;29;20020;-69
2021/03/25 12:46:19;;;;;;;16.70;10.32;;;;;;;;;;4897583;29;20032;-68
2021/03/25 12:48:45;;;;;;;13.52;8.15;;;;;;;;;;4892032;29;20036;-69
2021/03/25 12:51:15;;;;;;;13.98;8.38;;;;;;;;;;4878566;29;20061;-68
2021/03/25 12:53:42;;;;;;;18.95;10.30;;;;;;;;;;4895020;29;20032;-69
2021/03/25 12:56:14;;;;;;;12.88;7.72;;;;;;;;;;4883863;29;20409;-70
2021/03/25 12:58:40;;;;;;;13.57;8.02;;;;;;;;;;4884040;29;20049;-70
2021/03/25 13:01:08;;;;;;;13.52;8.27;;;;;;;;;;4892483;29;20089;-69
2021/03/25 13:03:35;;;;;;;22.42;12.40;;;;;;;;;;4902950;29;20039;-69
2021/03/25 13:06:01;;;;;;;14.10;7.25;;;;;;;;;;4909792;29;20024;-67
2021/03/25 13:08:27;;;;;;;23.45;11.75;;;;;;;;;;4920114;29;20028;-69
2021/03/25 13:10:53;;;;;;;13.95;7.50;;;;;;;;;;4908079;29;20496;-68
2021/03/25 13:13:19;;;;;;;18.20;9.82;;;;;;;;;;4918715;29;20388;-66
2021/03/25 13:15:45;;;;;;;15.15;8.38;;;;;;;;;;4919300;29;20084;-68
2021/03/25 13:18:12;;;;;;;12.57;8.13;;;;;;;;;;4919297;29;20024;-67
2021/03/25 13:20:38;;;;;;;14.43;8.95;;;;;;;;;;4918294;29;20023;-68
2021/03/25 13:23:04;;;;;;;15.43;8.45;;;;;;;;;;4918949;29;20051;-69
2021/03/25 13:25:32;;;;;;;15.10;8.30;;;;;;;;;;4919625;29;20494;-68
2021/03/25 13:27:58;;;;;;;16.13;8.20;;;;;;;;;;4919603;29;20028;-67
2021/03/25 13:30:24;;;;;;;13.05;7.97;;;;;;;;;;4919121;29;20080;-68
2021/03/25 13:32:50;;;;;;;14.73;8.52;;;;;;;;;;4902610;29;20061;-67
2021/03/25 13:35:17;;;;;;;14.45;7.82;;;;;;;;;;4918739;29;20081;-69
2021/03/25 13:37:43;;;;;;;18.27;8.55;;;;;;;;;;4901979;29;20392;-68
2021/03/25 13:40:11;;;;;;;23.13;13.55;;;;;;;;;;4902223;29;20024;-71
2021/03/25 13:42:37;;;;;;;20.08;12.23;;;;;;;;;;4918622;29;20103;-66
2021/03/25 13:45:05;;;;;;;17.33;9.45;;;;;;;;;;4918787;29;20039;-69
2021/03/25 13:47:31;;;;;;;13.73;8.25;;;;;;;;;;4919186;29;20027;-72
2021/03/25 13:49:57;;;;;;;15.52;8.80;;;;;;;;;;4919091;29;20027;-68
2021/03/25 13:52:23;;;;;;;14.63;9.05;;;;;;;;;;4918629;29;20106;-68
2021/03/25 13:54:49;;;;;;;15.00;8.80;;;;;;;;;;4902057;29;20047;-69
2021/03/25 13:57:17;;;;;;;13.93;8.43;;;;;;;;;;4918637;29;20172;-68
2021/03/25 13:59:43;;;;;;;14.60;8.73;;;;;;;;;;4918405;29;20016;-69
2021/03/25 14:02:09;;;;;;;14.55;8.60;;;;;;;;;;4915888;29;20071;-67
2021/03/25 14:04:36;;;;;;;16.10;11.35;;;;;;;;;;4915149;29;20024;-70
2021/03/25 14:07:02;;;;;;;19.77;13.27;;;;;;;;;;4918058;29;20062;-71
2021/03/25 14:09:28;;;;;;;13.43;8.07;;;;;;;;;;4918165;29;20083;-68
2021/03/25 14:11:54;;;;;;;18.77;9.02;;;;;;;;;;4917213;29;20128;-67
2021/03/25 14:14:20;;;;;;;14.85;8.63;;;;;;;;;;4917889;29;20024;-69
2021/03/25 14:16:47;;;;;;;14.80;8.40;;;;;;;;;;4901153;29;20036;-71
2021/03/25 14:19:13;;;;;;;14.73;8.10;;;;;;;;;;4917095;29;20024;-69
2021/03/25 14:21:39;;;;;;;12.85;7.13;;;;;;;;;;4918366;29;20020;-67
2021/03/25 14:24:06;;;;;;;12.90;7.55;;;;;;;;;;4918263;29;20028;-71
2021/03/25 14:26:32;;;;;;;15.80;8.52;;;;;;;;;;4917563;29;20088;-68
2021/03/25 14:29:02;;;;;;;12.48;7.88;;;;;;;;;;4901335;29;20028;-67
2021/03/25 14:31:30;;;;;;;11.27;7.10;;;;;;;;;;4900747;29;20060;-67
2021/03/25 14:33:56;;;;;;;10.13;6.50;;;;;;;;;;4916560;29;20021;-67
2021/03/25 14:36:22;;;;;;;15.45;7.78;;;;;;;;;;4918295;29;20028;-68
2021/03/25 14:38:48;;;;;;;12.68;6.97;;;;;;;;;;4917825;29;20039;-68
2021/03/25 14:41:15;;;;;;;12.07;7.05;;;;;;;;;;4900143;29;20035;-69
2021/03/25 14:43:41;;;;;;;12.13;6.90;;;;;;;;;;4918598;29;20055;-67